This is the latest recevied weather packets stored in our database for station/object CQ0XCH-11. If no packets are shown the sender has not sent any weather packets the latest 10 day(s).
| Time | Temp. | Humidity | Pressure | Rain* | Wind** | Luminosity | Snow |
|---|---|---|---|---|---|---|---|
| 1778348327 | 22.78° C | 39% | 986.7 hPa | 6.35 mm | - | - | - |
| 1778348110 | 22.78° C | 39% | 986.6 hPa | 6.35 mm | - | - | - |
| 1778347936 | 22.22° C | 39% | 986.6 hPa | 6.35 mm | - | - | - |
| 1778347722 | 22.78° C | 40% | 986.6 hPa | 6.35 mm | - | - | - |
| 1778347579 | 22.22° C | 40% | 986.7 hPa | 6.35 mm | - | - | - |
| 1778347474 | 22.22° C | 39% | 986.5 hPa | 6.35 mm | - | - | - |
| 1778347204 | 22.22° C | 41% | 986.6 hPa | 6.35 mm | - | - | - |
| 1778347109 | 22.22° C | 41% | 986.6 hPa | 6.35 mm | - | - | - |
| 1778346964 | 21.67° C | 41% | 986.6 hPa | 6.35 mm | - | - | - |
| 1778346629 | 21.11° C | 42% | 986.5 hPa | 6.35 mm | - | - | - |
| 1778346470 | 21.11° C | 42% | 986.6 hPa | 6.35 mm | - | - | - |
| 1778346351 | 21.11° C | 42% | 986.5 hPa | 6.35 mm | - | - | - |
| 1778346257 | 20.56° C | 42% | 986.5 hPa | 6.35 mm | - | - | - |
| 1778346104 | 20.56° C | 42% | 986.5 hPa | 6.35 mm | - | - | - |
| 1778345973 | 20.56° C | 43% | 986.5 hPa | 6.35 mm | - | - | - |
| 1778345726 | 20.56° C | 42% | 986.5 hPa | 6.35 mm | - | - | - |
| 1778345632 | 20.56° C | 42% | 986.5 hPa | 6.35 mm | - | - | - |
| 1778344737 | 21.11° C | 40% | 986.6 hPa | 5.84 mm | - | - | - |
| 1778343395 | 21.67° C | 37% | 985.9 hPa | 5.08 mm | - | - | - |
| 1778343262 | 22.22° C | 37% | 985.9 hPa | 5.08 mm | - | - | - |
| 1778343176 | 22.22° C | 36% | 985.9 hPa | 5.08 mm | - | - | - |
| 1778343016 | 22.22° C | 36% | 985.8 hPa | 5.08 mm | - | - | - |
| 1778342921 | 22.22° C | 35% | 985.7 hPa | 5.08 mm | - | - | - |
| 1778342778 | 22.22° C | 35% | 985.7 hPa | 5.08 mm | - | - | - |
| 1778342679 | 22.78° C | 35% | 985.5 hPa | 5.08 mm | - | - | - |
* Rain since midnight (hover to see other rain measurements)
** Current wind speed in m/s (hover to see current wind gust speed)